createdAt,value
2023-03-31T00:01:42.410Z,100.00
2023-03-31T00:04:10.468Z,100.00
2023-03-31T00:06:38.163Z,100.00
2023-03-31T00:09:11.754Z,100.00
2023-03-31T00:11:39.769Z,100.00
2023-03-31T00:14:08.683Z,100.00
2023-03-31T00:16:37.012Z,100.00
2023-03-31T00:19:04.729Z,100.00
2023-03-31T00:21:31.977Z,100.00
2023-03-31T00:24:01.572Z,100.00
2023-03-31T00:26:29.139Z,100.00
2023-03-31T00:28:56.752Z,100.00
2023-03-31T00:31:24.684Z,100.00
2023-03-31T00:33:51.430Z,100.00
2023-03-31T00:36:18.307Z,100.00
2023-03-31T00:38:45.202Z,100.00
2023-03-31T00:41:11.841Z,100.00
2023-03-31T00:43:38.898Z,100.00
2023-03-31T00:46:23.629Z,100.00
2023-03-31T00:48:55.233Z,100.00
2023-03-31T00:51:24.449Z,100.00
2023-03-31T00:53:55.806Z,100.00
2023-03-31T00:56:22.506Z,100.00
2023-03-31T00:58:49.528Z,100.00
2023-03-31T01:01:20.894Z,100.00
2023-03-31T01:03:48.259Z,100.00
2023-03-31T01:06:17.993Z,100.00
2023-03-31T01:08:44.632Z,100.00
2023-03-31T01:11:17.413Z,100.00
2023-03-31T01:13:44.517Z,100.00
2023-03-31T01:16:11.121Z,100.00
2023-03-31T01:18:38.141Z,100.00
2023-03-31T01:21:18.884Z,100.00
2023-03-31T01:24:10.024Z,100.00
2023-03-31T01:26:48.791Z,100.00
2023-03-31T01:29:27.469Z,100.00
2023-03-31T01:32:27.696Z,100.00
2023-03-31T01:35:09.944Z,100.00
2023-03-31T01:37:53.712Z,100.00
2023-03-31T01:40:29.466Z,100.00
2023-03-31T01:43:03.613Z,100.00
2023-03-31T01:45:42.431Z,100.00
2023-03-31T01:48:16.371Z,100.00
2023-03-31T01:50:57.422Z,100.00
2023-03-31T01:53:41.115Z,100.00
2023-03-31T01:56:33.155Z,100.00
2023-03-31T01:59:29.901Z,100.00
2023-03-31T02:02:06.647Z,100.00
2023-03-31T02:04:39.681Z,100.00
2023-03-31T02:07:15.589Z,100.00
2023-03-31T02:09:47.250Z,100.00
2023-03-31T02:12:16.093Z,100.00
2023-03-31T02:14:47.382Z,100.00
2023-03-31T02:17:19.504Z,100.00
2023-03-31T02:19:51.015Z,100.00
2023-03-31T02:22:21.422Z,100.00
2023-03-31T02:24:51.515Z,100.00
2023-03-31T02:27:26.110Z,100.00
2023-03-31T02:29:54.215Z,100.00
2023-03-31T02:32:33.003Z,100.00
2023-03-31T02:35:00.830Z,100.00
2023-03-31T02:37:30.372Z,100.00
2023-03-31T02:40:00.476Z,100.00
2023-03-31T02:42:27.388Z,100.00
2023-03-31T02:44:54.061Z,100.00
2023-03-31T02:47:22.128Z,100.00
2023-03-31T02:49:54.620Z,100.00
2023-03-31T02:52:33.389Z,100.00
2023-03-31T02:55:12.138Z,100.00
2023-03-31T02:58:14.903Z,100.00
2023-03-31T03:01:10.701Z,100.00
2023-03-31T03:04:06.421Z,100.00
2023-03-31T03:07:03.364Z,100.00
2023-03-31T03:09:57.046Z,100.00
2023-03-31T03:12:38.461Z,100.00
2023-03-31T03:15:17.325Z,100.00
2023-03-31T03:17:48.747Z,100.00
2023-03-31T03:20:16.080Z,100.00
2023-03-31T03:22:42.889Z,100.00
2023-03-31T03:25:11.962Z,100.00
2023-03-31T03:27:38.961Z,100.00
2023-03-31T03:30:08.749Z,100.00
2023-03-31T03:32:35.405Z,100.00
2023-03-31T03:35:02.864Z,100.00
2023-03-31T03:37:30.540Z,100.00
2023-03-31T03:39:57.287Z,100.00
2023-03-31T03:42:23.985Z,100.00
2023-03-31T03:44:50.847Z,100.00
2023-03-31T03:47:17.606Z,100.00
2023-03-31T03:49:44.226Z,100.00
2023-03-31T03:52:10.853Z,100.00
2023-03-31T03:54:37.453Z,100.00
2023-03-31T03:57:04.618Z,100.00
2023-03-31T03:59:31.232Z,100.00
2023-03-31T04:01:57.918Z,100.00
2023-03-31T04:04:24.856Z,100.00
2023-03-31T04:06:51.987Z,100.00
2023-03-31T04:09:18.638Z,100.00
2023-03-31T04:11:45.284Z,100.00
2023-03-31T04:14:12.019Z,100.00
2023-03-31T04:16:38.804Z,100.00
2023-03-31T04:19:05.441Z,100.00
2023-03-31T04:21:32.317Z,100.00
2023-03-31T04:23:59.004Z,100.00
2023-03-31T04:26:28.260Z,100.00
2023-03-31T04:28:54.851Z,100.00
2023-03-31T04:31:21.767Z,100.00
2023-03-31T04:33:48.415Z,100.00
2023-03-31T04:36:15.199Z,100.00
2023-03-31T04:38:41.886Z,100.00
2023-03-31T04:41:08.477Z,100.00
2023-03-31T04:43:35.076Z,100.00
2023-03-31T04:46:01.831Z,100.00
2023-03-31T04:48:28.452Z,100.00
2023-03-31T04:50:55.260Z,100.00
2023-03-31T04:53:22.100Z,100.00
2023-03-31T04:55:49.825Z,100.00
2023-03-31T04:58:16.902Z,100.00
2023-03-31T05:00:43.873Z,100.00
2023-03-31T05:03:10.704Z,100.00
2023-03-31T05:05:37.848Z,100.00
2023-03-31T05:08:04.802Z,100.00
2023-03-31T05:10:32.271Z,100.00
2023-03-31T05:12:58.922Z,100.00
2023-03-31T05:15:25.567Z,100.00
2023-03-31T05:17:52.815Z,100.00
2023-03-31T05:20:20.072Z,100.00
2023-03-31T05:22:47.280Z,100.00
2023-03-31T05:25:14.879Z,100.00
2023-03-31T05:27:41.728Z,100.00
2023-03-31T05:30:08.942Z,100.00
2023-03-31T05:32:35.667Z,100.00
2023-03-31T05:35:02.460Z,100.00
2023-03-31T05:37:29.723Z,100.00
2023-03-31T05:39:56.326Z,100.00
2023-03-31T05:42:23.041Z,100.00
2023-03-31T05:44:49.825Z,100.00
2023-03-31T05:47:16.832Z,100.00
2023-03-31T05:49:43.715Z,100.00
2023-03-31T05:52:11.446Z,100.00
2023-03-31T05:54:38.043Z,100.00
2023-03-31T05:57:04.688Z,100.00
2023-03-31T05:59:31.436Z,100.00
2023-03-31T06:01:58.178Z,100.00
2023-03-31T06:04:25.013Z,100.00
2023-03-31T06:06:51.675Z,100.00
2023-03-31T06:09:18.313Z,100.00
2023-03-31T06:11:45.019Z,100.00
2023-03-31T06:14:11.852Z,100.00
2023-03-31T06:16:38.871Z,100.00
2023-03-31T06:19:05.516Z,100.00
2023-03-31T06:21:32.424Z,100.00
2023-03-31T06:23:59.198Z,100.00
2023-03-31T06:26:26.438Z,100.00
2023-03-31T06:28:53.247Z,100.00
2023-03-31T06:31:23.149Z,100.00
2023-03-31T06:33:49.967Z,100.00
2023-03-31T06:36:18.704Z,100.00
2023-03-31T06:38:45.962Z,100.00
2023-03-31T06:41:14.416Z,100.00
2023-03-31T06:43:41.101Z,100.00
2023-03-31T06:46:08.585Z,100.00
2023-03-31T06:48:35.620Z,100.00
2023-03-31T06:51:04.660Z,100.00
2023-03-31T06:53:32.031Z,100.00
2023-03-31T06:55:58.767Z,100.00
2023-03-31T06:58:25.744Z,100.00
2023-03-31T07:00:52.983Z,100.00
2023-03-31T07:03:19.699Z,100.00
2023-03-31T07:05:51.002Z,100.00
2023-03-31T07:08:18.222Z,100.00
2023-03-31T07:10:45.619Z,100.00
2023-03-31T07:13:12.580Z,100.00
2023-03-31T07:15:39.284Z,100.00
2023-03-31T07:18:09.105Z,100.00
2023-03-31T07:20:35.943Z,100.00
2023-03-31T07:23:05.150Z,100.00
2023-03-31T07:25:32.011Z,100.00
2023-03-31T07:27:58.644Z,100.00
2023-03-31T07:30:25.368Z,100.00
2023-03-31T07:32:52.925Z,100.00
2023-03-31T07:35:19.765Z,100.00
2023-03-31T07:37:48.601Z,100.00
2023-03-31T07:40:19.646Z,100.00
2023-03-31T07:42:47.907Z,100.00
2023-03-31T07:45:17.036Z,100.00
2023-03-31T07:47:44.672Z,100.00
2023-03-31T07:50:12.606Z,100.00
2023-03-31T07:52:40.154Z,99.74
2023-03-31T07:55:07.602Z,97.54
2023-03-31T07:57:35.823Z,100.00
2023-03-31T08:00:07.439Z,99.34
2023-03-31T08:02:34.633Z,100.00
2023-03-31T08:05:01.437Z,100.00
2023-03-31T08:07:28.179Z,97.52
2023-03-31T08:09:54.970Z,94.31
2023-03-31T08:12:21.717Z,92.18
2023-03-31T08:14:48.317Z,93.55
2023-03-31T08:17:14.924Z,97.23
2023-03-31T08:19:41.650Z,97.06
2023-03-31T08:22:08.284Z,99.15
2023-03-31T08:24:34.984Z,97.18
2023-03-31T08:27:01.680Z,92.25
2023-03-31T08:29:28.542Z,91.22
2023-03-31T08:31:55.451Z,83.08
2023-03-31T08:34:22.121Z,88.10
2023-03-31T08:36:48.723Z,87.82
2023-03-31T08:39:15.460Z,84.00
2023-03-31T08:41:42.000Z,83.41
2023-03-31T08:44:29.279Z,84.94
2023-03-31T08:46:58.578Z,83.67
2023-03-31T08:49:27.083Z,82.88
2023-03-31T08:52:00.018Z,79.41
2023-03-31T08:54:32.015Z,81.14
2023-03-31T08:56:59.001Z,84.44
2023-03-31T08:59:36.277Z,81.86
2023-03-31T09:02:25.205Z,84.54
2023-03-31T09:05:10.935Z,87.92
2023-03-31T09:07:47.135Z,82.16
2023-03-31T09:10:25.820Z,78.88
2023-03-31T09:13:04.621Z,79.62
2023-03-31T09:15:47.350Z,81.33
2023-03-31T09:18:31.740Z,76.46
2023-03-31T09:21:14.412Z,77.24
2023-03-31T09:23:49.680Z,73.48
2023-03-31T09:26:55.861Z,76.82
2023-03-31T09:29:29.049Z,80.36
2023-03-31T09:32:01.958Z,79.03
2023-03-31T09:34:32.516Z,79.38
2023-03-31T09:36:59.239Z,79.64
2023-03-31T09:39:26.626Z,76.74
2023-03-31T09:41:53.629Z,73.82
2023-03-31T09:44:38.437Z,75.83
2023-03-31T09:47:13.967Z,72.05
2023-03-31T09:49:54.019Z,71.17
2023-03-31T09:52:33.099Z,73.95
2023-03-31T09:55:02.518Z,75.53
2023-03-31T09:57:40.355Z,75.95
2023-03-31T10:00:17.338Z,73.34
2023-03-31T10:02:55.845Z,73.60
2023-03-31T10:05:28.446Z,72.50
2023-03-31T10:08:18.770Z,76.39
2023-03-31T10:11:10.390Z,72.17
2023-03-31T10:13:45.622Z,76.26
2023-03-31T10:16:33.372Z,76.79
2023-03-31T10:19:24.188Z,69.26
2023-03-31T10:22:02.970Z,72.75
2023-03-31T10:25:10.355Z,71.77
2023-03-31T10:27:40.661Z,70.18
2023-03-31T10:30:12.181Z,71.19
2023-03-31T10:32:43.214Z,70.85
2023-03-31T10:35:21.790Z,66.67
2023-03-31T10:37:51.206Z,66.56
2023-03-31T10:40:20.666Z,67.66
2023-03-31T10:43:10.260Z,65.68
2023-03-31T10:45:43.229Z,66.97
2023-03-31T10:48:24.583Z,67.13
2023-03-31T10:50:51.359Z,66.32
2023-03-31T10:53:19.235Z,68.69
2023-03-31T10:56:04.566Z,71.22
2023-03-31T10:59:06.694Z,69.88
2023-03-31T11:01:51.749Z,70.92
2023-03-31T11:04:46.371Z,67.91
2023-03-31T11:07:49.311Z,69.28
2023-03-31T11:10:34.008Z,66.38
2023-03-31T11:13:34.443Z,63.61
2023-03-31T11:16:21.332Z,63.31
2023-03-31T11:19:02.933Z,65.45
2023-03-31T11:21:50.721Z,63.40
2023-03-31T11:24:24.791Z,61.08
2023-03-31T11:27:22.013Z,63.42
2023-03-31T11:30:03.605Z,60.74
2023-03-31T11:32:31.436Z,62.42
2023-03-31T11:35:19.570Z,64.19
2023-03-31T11:38:16.770Z,63.42
2023-03-31T11:40:52.373Z,61.70
2023-03-31T11:43:33.436Z,62.46
2023-03-31T11:46:24.469Z,60.97
2023-03-31T11:48:52.025Z,62.98
2023-03-31T11:51:44.905Z,65.29
2023-03-31T11:54:20.740Z,62.48
2023-03-31T11:56:47.516Z,60.73
2023-03-31T11:59:17.182Z,62.06
2023-03-31T12:02:18.325Z,60.66
2023-03-31T12:04:52.329Z,61.92
2023-03-31T12:07:31.829Z,60.04
2023-03-31T12:10:05.056Z,59.26
2023-03-31T12:12:44.361Z,58.87
2023-03-31T12:15:23.022Z,57.61
2023-03-31T12:17:59.392Z,57.50
2023-03-31T12:20:32.652Z,58.96
2023-03-31T12:23:02.767Z,59.50
2023-03-31T12:25:47.447Z,59.07
2023-03-31T12:28:15.837Z,57.96
2023-03-31T12:30:44.239Z,60.01
2023-03-31T12:33:25.474Z,60.51
2023-03-31T12:36:18.902Z,59.80
2023-03-31T12:39:06.978Z,57.71
2023-03-31T12:42:04.324Z,60.19
2023-03-31T12:44:50.920Z,58.70
2023-03-31T12:47:32.431Z,56.73
2023-03-31T12:50:26.356Z,58.60
2023-03-31T12:53:21.014Z,58.98
2023-03-31T12:55:56.403Z,61.24
2023-03-31T12:58:23.027Z,60.20
2023-03-31T13:01:13.982Z,61.82
2023-03-31T13:03:42.979Z,62.76
2023-03-31T13:06:29.824Z,62.30
2023-03-31T13:08:58.111Z,60.42
2023-03-31T13:11:33.805Z,60.65
2023-03-31T13:14:24.067Z,59.54
2023-03-31T13:16:54.297Z,56.84
2023-03-31T13:19:33.962Z,57.80
2023-03-31T13:22:03.468Z,58.73
2023-03-31T13:24:31.632Z,57.93
2023-03-31T13:27:45.788Z,57.30
2023-03-31T13:30:41.107Z,59.11
2023-03-31T13:33:28.872Z,60.77
2023-03-31T13:36:19.592Z,60.01
2023-03-31T13:39:17.098Z,58.59
2023-03-31T13:42:12.880Z,57.68
2023-03-31T13:45:11.830Z,58.65
2023-03-31T13:48:01.041Z,57.69
2023-03-31T13:51:13.332Z,58.34
2023-03-31T13:54:08.011Z,58.80
2023-03-31T13:57:03.516Z,59.59
2023-03-31T13:59:48.806Z,59.96
2023-03-31T14:02:30.363Z,59.13
2023-03-31T14:05:00.024Z,59.34
2023-03-31T14:07:40.708Z,60.34
2023-03-31T14:10:31.433Z,60.78
2023-03-31T14:13:09.923Z,59.58
2023-03-31T14:15:49.292Z,61.17
2023-03-31T14:18:23.569Z,59.81
2023-03-31T14:20:59.973Z,60.32
2023-03-31T14:23:58.451Z,59.91
2023-03-31T14:26:37.399Z,60.37
2023-03-31T14:29:21.135Z,58.49
2023-03-31T14:32:18.773Z,58.94
2023-03-31T14:35:00.871Z,57.99
2023-03-31T14:37:27.667Z,57.31
2023-03-31T14:39:55.880Z,55.38
2023-03-31T14:42:27.441Z,56.50
2023-03-31T14:44:58.580Z,56.81
2023-03-31T14:47:27.417Z,56.32
2023-03-31T14:50:16.435Z,54.76
2023-03-31T14:52:51.409Z,52.91
2023-03-31T14:55:25.241Z,52.70
2023-03-31T14:57:58.493Z,54.72
2023-03-31T15:00:29.849Z,54.91
2023-03-31T15:02:58.319Z,52.97
2023-03-31T15:05:34.191Z,52.74
2023-03-31T15:08:26.997Z,53.37
2023-03-31T15:11:12.011Z,55.04
2023-03-31T15:13:56.726Z,55.31
2023-03-31T15:16:41.802Z,56.32
2023-03-31T15:19:21.789Z,56.56
2023-03-31T15:22:00.481Z,55.45
2023-03-31T15:24:30.573Z,54.93
2023-03-31T15:27:02.778Z,54.58
2023-03-31T15:29:48.982Z,54.87
2023-03-31T15:32:45.684Z,54.95
2023-03-31T15:35:32.091Z,53.79
2023-03-31T15:38:00.557Z,55.99
2023-03-31T15:40:36.183Z,52.89
2023-03-31T15:45:53.467Z,53.39
2023-03-31T15:48:29.098Z,52.68
2023-03-31T15:51:16.924Z,53.49
2023-03-31T15:53:49.427Z,54.62
2023-03-31T15:56:42.973Z,55.19
2023-03-31T15:59:54.613Z,56.90
2023-03-31T16:02:25.615Z,57.76
2023-03-31T16:04:57.568Z,56.82
2023-03-31T16:07:28.686Z,57.34
2023-03-31T16:09:59.560Z,57.82
2023-03-31T16:12:30.943Z,57.69
2023-03-31T16:15:02.402Z,58.38
2023-03-31T16:17:31.105Z,57.02
2023-03-31T16:20:07.409Z,58.95
2023-03-31T16:22:39.840Z,58.43
2023-03-31T16:25:14.769Z,59.90
2023-03-31T16:28:07.759Z,59.19
2023-03-31T16:30:37.834Z,57.97
2023-03-31T16:33:10.179Z,59.66
2023-03-31T16:35:41.596Z,61.30
2023-03-31T16:38:10.769Z,60.29
2023-03-31T16:40:40.788Z,60.78
2023-03-31T16:43:25.481Z,59.80
2023-03-31T16:45:57.411Z,60.18
2023-03-31T16:48:26.444Z,61.53
2023-03-31T16:50:55.819Z,61.40
2023-03-31T16:53:25.937Z,63.29
2023-03-31T16:55:52.579Z,63.10
2023-03-31T16:58:19.222Z,63.10
2023-03-31T17:00:46.783Z,62.49
2023-03-31T17:03:14.236Z,63.93
2023-03-31T17:05:49.391Z,65.37
2023-03-31T17:08:16.487Z,65.19
2023-03-31T17:10:51.580Z,65.93
2023-03-31T17:13:18.346Z,66.22
2023-03-31T17:15:45.013Z,66.26
2023-03-31T17:18:12.351Z,64.88
2023-03-31T17:20:39.222Z,66.25
2023-03-31T17:23:05.923Z,66.26
2023-03-31T17:25:32.705Z,64.41
2023-03-31T17:28:00.562Z,65.98
2023-03-31T17:30:27.526Z,65.59
2023-03-31T17:32:54.349Z,66.14
2023-03-31T17:35:21.587Z,67.08
2023-03-31T17:37:49.721Z,66.80
2023-03-31T17:40:16.578Z,67.47
2023-03-31T17:42:43.272Z,67.19
2023-03-31T17:45:10.992Z,66.63
2023-03-31T17:47:37.709Z,67.69
2023-03-31T17:50:04.633Z,67.36
2023-03-31T17:52:31.246Z,68.11
2023-03-31T17:54:57.926Z,67.78
2023-03-31T17:57:24.732Z,68.13
2023-03-31T17:59:51.516Z,67.98
2023-03-31T18:02:18.276Z,68.83
2023-03-31T18:04:44.974Z,69.39
2023-03-31T18:07:11.667Z,69.31
2023-03-31T18:09:38.705Z,67.17
2023-03-31T18:12:05.862Z,68.64
2023-03-31T18:14:32.569Z,67.67
2023-03-31T18:16:59.386Z,69.03
2023-03-31T18:19:26.033Z,71.06
2023-03-31T18:21:52.874Z,70.29
2023-03-31T18:24:19.513Z,70.44
2023-03-31T18:26:46.239Z,69.38
2023-03-31T18:29:12.883Z,70.60
2023-03-31T18:31:39.535Z,70.34
2023-03-31T18:34:06.251Z,69.78
2023-03-31T18:36:34.121Z,71.12
2023-03-31T18:39:01.098Z,72.15
2023-03-31T18:41:27.749Z,72.79
2023-03-31T18:43:54.518Z,70.25
2023-03-31T18:46:23.512Z,70.56
2023-03-31T18:48:50.274Z,72.48
2023-03-31T18:51:17.240Z,74.32
2023-03-31T18:53:44.141Z,74.14
2023-03-31T18:56:10.858Z,72.41
2023-03-31T18:58:39.996Z,72.16
2023-03-31T19:01:06.646Z,74.53
2023-03-31T19:03:33.361Z,73.67
2023-03-31T19:06:01.861Z,75.82
2023-03-31T19:08:29.603Z,77.06
2023-03-31T19:11:08.491Z,79.90
2023-03-31T19:13:35.231Z,77.65
2023-03-31T19:16:01.866Z,77.83
2023-03-31T19:18:29.030Z,78.03
2023-03-31T19:20:59.332Z,82.43
2023-03-31T19:23:26.283Z,80.46
2023-03-31T19:25:54.020Z,82.30
2023-03-31T19:28:22.814Z,82.31
2023-03-31T19:30:51.125Z,83.82
2023-03-31T19:33:18.370Z,86.77
2023-03-31T19:35:46.653Z,88.77
2023-03-31T19:38:14.547Z,87.32
2023-03-31T19:40:42.729Z,87.41
2023-03-31T19:43:22.777Z,88.92
2023-03-31T19:45:51.444Z,90.41
2023-03-31T19:48:18.093Z,88.74
2023-03-31T19:50:53.267Z,85.99
2023-03-31T19:53:21.546Z,90.49
2023-03-31T19:55:59.772Z,88.50
2023-03-31T19:58:27.851Z,86.92
2023-03-31T20:00:55.831Z,84.55
2023-03-31T20:03:25.691Z,84.55
2023-03-31T20:05:52.513Z,84.74
2023-03-31T20:08:19.154Z,82.78
2023-03-31T20:10:45.986Z,85.36
2023-03-31T20:13:12.711Z,85.86
2023-03-31T20:15:40.435Z,84.59
2023-03-31T20:18:07.614Z,88.22
2023-03-31T20:20:34.303Z,87.09
2023-03-31T20:23:00.921Z,85.75
2023-03-31T20:25:27.669Z,85.95
2023-03-31T20:27:54.418Z,88.99
2023-03-31T20:30:21.031Z,88.75
2023-03-31T20:32:47.787Z,91.36
2023-03-31T20:35:14.608Z,90.80
2023-03-31T20:37:41.386Z,92.00
2023-03-31T20:40:08.459Z,95.45
2023-03-31T20:42:35.061Z,97.43
2023-03-31T20:45:01.736Z,96.18
2023-03-31T20:47:28.433Z,100.00
2023-03-31T20:49:55.106Z,98.95
2023-03-31T20:52:21.740Z,100.00
2023-03-31T20:54:48.365Z,100.00
2023-03-31T20:57:15.051Z,100.00
2023-03-31T20:59:41.680Z,100.00
2023-03-31T21:02:12.434Z,100.00
2023-03-31T21:04:39.036Z,100.00
2023-03-31T21:07:05.633Z,100.00
2023-03-31T21:09:32.213Z,100.00
2023-03-31T21:11:58.870Z,99.85
2023-03-31T21:14:25.559Z,96.26
2023-03-31T21:16:52.302Z,98.94
2023-03-31T21:19:18.996Z,99.78
2023-03-31T21:21:45.691Z,98.03
2023-03-31T21:24:15.359Z,100.00
2023-03-31T21:26:42.277Z,100.00
2023-03-31T21:29:09.047Z,100.00
2023-03-31T21:31:35.784Z,100.00
2023-03-31T21:34:02.533Z,100.00
2023-03-31T21:36:29.216Z,100.00
2023-03-31T21:38:56.675Z,100.00
2023-03-31T21:41:26.568Z,100.00
2023-03-31T21:43:53.173Z,98.29
2023-03-31T21:46:24.057Z,94.65
2023-03-31T21:48:50.800Z,95.36
2023-03-31T21:51:18.798Z,97.17
2023-03-31T21:53:45.626Z,97.71
2023-03-31T21:56:12.271Z,97.25
2023-03-31T21:58:38.934Z,95.42
2023-03-31T22:01:05.900Z,94.26
2023-03-31T22:03:33.673Z,95.18
2023-03-31T22:06:05.130Z,97.39
2023-03-31T22:08:31.795Z,100.00
2023-03-31T22:11:00.556Z,100.00
2023-03-31T22:13:28.738Z,97.39
2023-03-31T22:15:56.062Z,97.68
2023-03-31T22:18:23.143Z,95.73
2023-03-31T22:20:50.660Z,98.72
2023-03-31T22:23:17.875Z,99.43
2023-03-31T22:25:44.521Z,100.00
2023-03-31T22:28:11.460Z,100.00
2023-03-31T22:30:38.212Z,100.00
2023-03-31T22:33:05.149Z,100.00
2023-03-31T22:35:32.037Z,100.00
2023-03-31T22:37:59.072Z,100.00
2023-03-31T22:40:25.933Z,100.00
2023-03-31T22:42:52.565Z,100.00
2023-03-31T22:45:19.191Z,100.00
2023-03-31T22:47:46.016Z,100.00
2023-03-31T22:50:12.653Z,100.00
2023-03-31T22:52:39.296Z,100.00
2023-03-31T22:55:06.449Z,100.00
2023-03-31T22:57:33.499Z,100.00
2023-03-31T23:00:00.394Z,100.00
2023-03-31T23:02:27.032Z,100.00
2023-03-31T23:04:53.637Z,100.00
2023-03-31T23:07:20.321Z,100.00
2023-03-31T23:09:46.971Z,100.00
2023-03-31T23:12:13.610Z,100.00
2023-03-31T23:14:40.248Z,100.00
2023-03-31T23:17:07.030Z,100.00
2023-03-31T23:19:33.919Z,100.00
2023-03-31T23:22:00.562Z,100.00
2023-03-31T23:24:27.241Z,100.00
2023-03-31T23:26:53.966Z,100.00
2023-03-31T23:29:20.629Z,100.00
2023-03-31T23:31:47.306Z,100.00
2023-03-31T23:34:14.011Z,100.00
2023-03-31T23:36:40.802Z,100.00
2023-03-31T23:39:07.444Z,100.00
2023-03-31T23:41:34.651Z,100.00
2023-03-31T23:44:01.411Z,100.00
2023-03-31T23:46:28.291Z,100.00
2023-03-31T23:48:55.705Z,100.00
2023-03-31T23:51:22.334Z,100.00
2023-03-31T23:53:48.976Z,100.00
2023-03-31T23:56:15.616Z,100.00
2023-03-31T23:58:42.728Z,100.00
